Time;durP1;ratioP1;P1;durP2;ratioP2;P2;SDS_P1;SDS_P2;PMS_P1;PMS_P2;Temp;Humidity;BMP_temperature;BMP_pressure;BME280_temperature;BME280_humidity;BME280_pressure;Samples;Min_cycle;Max_cycle;Signal;HPM_P1;HPM_P2
2022/10/11 00:02:04;;;;;;;;;;;;;;;;;;5047062;28;5104;-60
2022/10/11 00:04:29;;;;;;;;;;;;;;;;;;5046934;28;5126;-60
2022/10/11 00:06:54;;;;;;;;;;;;;;;;;;5064735;28;4556;-60
2022/10/11 00:09:20;;;;;;;;;;;;;;;;;;5052051;28;4998;-61
2022/10/11 00:11:45;;;;;;;;;;;;;;;;;;5069265;28;1829;-60
2022/10/11 00:14:10;;;;;;;;;;;;;;;;;;5061420;28;5009;-60
2022/10/11 00:16:39;;;;;;;;;;;;;;;;;;5062249;28;5568;-62
2022/10/11 00:19:04;;;;;;;;;;;;;;;;;;5058991;28;4963;-60
2022/10/11 00:21:30;;;;;;;;;;;;;;;;;;5065680;28;4603;-60
2022/10/11 00:23:55;;;;;;;;;;;;;;;;;;5060744;28;2915;-60
2022/10/11 00:26:21;;;;;;;;;;;;;;;;;;5065278;28;4980;-60
2022/10/11 00:28:46;;;;;;;;;;;;;;;;;;5067940;28;5074;-60
2022/10/11 00:31:12;;;;;;;;;;;;;;;;;;5069833;28;5003;-60
2022/10/11 00:33:37;;;;;;;;;;;;;;;;;;5069290;28;4811;-60
2022/10/11 00:36:03;;;;;;;;;;;;;;;;;;5070337;28;1096;-60
2022/10/11 00:38:28;;;;;;;;;;;;;;;;;;5062274;28;4406;-61
2022/10/11 00:40:53;;;;;;;;;;;;;;;;;;5061496;28;5086;-60
2022/10/11 00:43:20;;;;;;;;;;;;;;;;;;5063975;28;5598;-60
2022/10/11 00:45:54;;;;;;;;;;;;;;;;;;5061668;28;4517;-60
2022/10/11 00:48:39;;;;;;;;;;;;;;;;;;5063538;28;4990;-60
2022/10/11 00:51:07;;;;;;;;;;;;;;;;;;5060503;28;1395;-60
2022/10/11 00:53:32;;;;;;;;;;;;;;;;;;5044543;28;4810;-60
2022/10/11 00:56:02;;;;;;;;;;;;;;;;;;5049196;28;5155;-60
2022/10/11 00:58:28;;;;;;;;;;;;;;;;;;5061054;28;4547;-60
2022/10/11 01:00:53;;;;;;;;;;;;;;;;;;5039190;28;5066;-59
2022/10/11 01:03:19;;;;;;;;;;;;;;;;;;5067344;28;5115;-60
2022/10/11 01:05:44;;;;;;;;;;;;;;;;;;5060790;28;1195;-60
2022/10/11 01:08:09;;;;;;;;;;;;;;;;;;5065469;28;5273;-61
2022/10/11 01:10:34;;;;;;;;;;;;;;;;;;5032899;28;4829;-61
2022/10/11 01:13:09;;;;;;;;;;;;;;;;;;5063806;28;4779;-60
2022/10/11 01:15:35;;;;;;;;;;;;;;;;;;5058731;28;5127;-60
2022/10/11 01:18:13;;;;;;;;;;;;;;;;;;5047851;28;1206;-60
2022/10/11 01:20:38;;;;;;;;;;;;;;;;;;5038247;28;5022;-60
2022/10/11 01:23:16;;;;;;;;;;;;;;;;;;5056905;28;4893;-60
2022/10/11 01:25:47;;;;;;;;;;;;;;;;;;5060887;28;4459;-60
2022/10/11 01:28:26;;;;;;;;;;;;;;;;;;5062846;28;4859;-60
2022/10/11 01:30:51;;;;;;;;;;;;;;;;;;5060689;28;4971;-60
2022/10/11 01:33:22;;;;;;;;;;;;;;;;;;5044984;28;4866;-60
2022/10/11 01:36:03;;;;;;;;;;;;;;;;;;5058928;28;1189;-60
2022/10/11 01:38:34;;;;;;;;;;;;;;;;;;5062416;28;5575;-60
2022/10/11 01:41:10;;;;;;;;;;;;;;;;;;5060740;28;5056;-60
2022/10/11 01:43:36;;;;;;;;;;;;;;;;;;5043653;28;5013;-59
2022/10/11 01:46:01;;;;;;;;;;;;;;;;;;5061249;28;5117;-59
2022/10/11 01:48:26;;;;;;;;;;;;;;;;;;5061300;28;4984;-59
2022/10/11 01:50:52;;;;;;;;;;;;;;;;;;5055860;28;1105;-59
2022/10/11 01:53:23;;;;;;;;;;;;;;;;;;5041648;28;4956;-59
2022/10/11 01:55:50;;;;;;;;;;;;;;;;;;5061813;28;4964;-59
2022/10/11 01:58:48;;;;;;;;;;;;;;;;;;5030087;28;5229;-59
2022/10/11 02:01:19;;;;;;;;;;;;;;;;;;5014810;28;5075;-60
2022/10/11 02:03:45;;;;;;;;;;;;;;;;;;5058116;28;4770;-59
2022/10/11 02:06:11;;;;;;;;;;;;;;;;;;5059895;28;1349;-60
2022/10/11 02:08:40;;;;;;;;;;;;;;;;;;5049778;28;4381;-60
2022/10/11 02:11:09;;;;;;;;;;;;;;;;;;5061234;28;5061;-61
2022/10/11 02:13:37;;;;;;;;;;;;;;;;;;5060350;28;5055;-59
2022/10/11 02:16:03;;;;;;;;;;;;;;;;;;5029202;28;5082;-59
2022/10/11 02:18:31;;;;;;;;;;;;;;;;;;5040486;28;4475;-59
2022/10/11 02:20:56;;;;;;;;;;;;;;;;;;5051953;28;2988;-59
2022/10/11 02:23:25;;;;;;;;;;;;;;;;;;5032908;28;5341;-59
2022/10/11 02:25:50;;;;;;;;;;;;;;;;;;5062241;28;5104;-59
2022/10/11 02:28:17;;;;;;;;;;;;;;;;;;5048212;28;5298;-59
2022/10/11 02:30:42;;;;;;;;;;;;;;;;;;5062832;28;5044;-59
2022/10/11 02:33:09;;;;;;;;;;;;;;;;;;5044727;28;1086;-59
2022/10/11 02:35:35;;;;;;;;;;;;;;;;;;5056647;28;5398;-61
2022/10/11 02:38:04;;;;;;;;;;;;;;;;;;5039005;28;4585;-59
2022/10/11 02:40:31;;;;;;;;;;;;;;;;;;5037874;28;5315;-59
2022/10/11 02:43:22;;;;;;;;;;;;;;;;;;5060618;28;5106;-59
2022/10/11 02:46:00;;;;;;;;;;;;;;;;;;5033193;28;4513;-60
2022/10/11 02:48:27;;;;;;;;;;;;;;;;;;5044335;28;5083;-60
2022/10/11 02:50:52;;;;;;;;;;;;;;;;;;5048131;28;1085;-60
2022/10/11 02:53:18;;;;;;;;;;;;;;;;;;5034100;28;4551;-60
2022/10/11 02:55:43;;;;;;;;;;;;;;;;;;5069508;28;5441;-60
2022/10/11 02:58:08;;;;;;;;;;;;;;;;;;5060411;28;5015;-60
2022/10/11 03:00:33;;;;;;;;;;;;;;;;;;5068866;28;5005;-60
2022/10/11 03:02:59;;;;;;;;;;;;;;;;;;5069243;28;1188;-60
2022/10/11 03:05:24;;;;;;;;;;;;;;;;;;5071478;28;5042;-61
2022/10/11 03:07:49;;;;;;;;;;;;;;;;;;5053078;28;4566;-61
2022/10/11 03:10:14;;;;;;;;;;;;;;;;;;5070322;28;5108;-60
2022/10/11 03:12:40;;;;;;;;;;;;;;;;;;5070159;28;5210;-60
2022/10/11 03:15:06;;;;;;;;;;;;;;;;;;5062429;28;2846;-61
2022/10/11 03:17:31;;;;;;;;;;;;;;;;;;5062207;28;4945;-60
2022/10/11 03:19:56;;;;;;;;;;;;;;;;;;5059479;28;4874;-60
2022/10/11 03:22:21;;;;;;;;;;;;;;;;;;5031849;28;4512;-61
2022/10/11 03:24:47;;;;;;;;;;;;;;;;;;5065989;28;5070;-60
2022/10/11 03:27:12;;;;;;;;;;;;;;;;;;5072984;28;5065;-61
2022/10/11 03:29:37;;;;;;;;;;;;;;;;;;5073328;28;1269;-60
2022/10/11 03:32:02;;;;;;;;;;;;;;;;;;5061372;28;5155;-60
2022/10/11 03:34:28;;;;;;;;;;;;;;;;;;5064160;28;5222;-61
2022/10/11 03:36:53;;;;;;;;;;;;;;;;;;5069423;28;5179;-60
2022/10/11 03:39:18;;;;;;;;;;;;;;;;;;5052570;28;5211;-60
2022/10/11 03:41:43;;;;;;;;;;;;;;;;;;5069232;28;1321;-60
2022/10/11 03:44:09;;;;;;;;;;;;;;;;;;5050104;28;4869;-60
2022/10/11 03:46:34;;;;;;;;;;;;;;;;;;5064366;28;5290;-60
2022/10/11 03:48:59;;;;;;;;;;;;;;;;;;5063633;28;4490;-59
2022/10/11 03:51:25;;;;;;;;;;;;;;;;;;5064683;28;4907;-60
2022/10/11 03:53:50;;;;;;;;;;;;;;;;;;5063020;28;1105;-60
2022/10/11 03:56:15;;;;;;;;;;;;;;;;;;5061303;28;4854;-60
2022/10/11 03:58:40;;;;;;;;;;;;;;;;;;5065061;28;4940;-60
2022/10/11 04:01:06;;;;;;;;;;;;;;;;;;5061663;28;5115;-61
2022/10/11 04:03:31;;;;;;;;;;;;;;;;;;5063567;28;5044;-60
2022/10/11 04:05:56;;;;;;;;;;;;;;;;;;5070641;28;1266;-60
2022/10/11 04:08:22;;;;;;;;;;;;;;;;;;5062812;28;5069;-60
2022/10/11 04:10:47;;;;;;;;;;;;;;;;;;5065358;28;5079;-60
2022/10/11 04:13:12;;;;;;;;;;;;;;;;;;5049637;28;5164;-60
2022/10/11 04:15:37;;;;;;;;;;;;;;;;;;5063257;28;5389;-60
2022/10/11 04:18:03;;;;;;;;;;;;;;;;;;5059874;28;1221;-60
2022/10/11 04:20:28;;;;;;;;;;;;;;;;;;5038197;28;5036;-60
2022/10/11 04:22:54;;;;;;;;;;;;;;;;;;5057379;28;4863;-60
2022/10/11 04:25:19;;;;;;;;;;;;;;;;;;5061994;28;4653;-60
2022/10/11 04:27:44;;;;;;;;;;;;;;;;;;5054011;28;4676;-60
2022/10/11 04:30:10;;;;;;;;;;;;;;;;;;5061840;28;1480;-60
2022/10/11 04:32:35;;;;;;;;;;;;;;;;;;5044664;28;4940;-62
2022/10/11 04:35:00;;;;;;;;;;;;;;;;;;5062690;28;4848;-61
2022/10/11 04:37:26;;;;;;;;;;;;;;;;;;5052821;28;5058;-60
2022/10/11 04:39:51;;;;;;;;;;;;;;;;;;5068600;28;5072;-61
2022/10/11 04:42:16;;;;;;;;;;;;;;;;;;5037175;28;5051;-59
2022/10/11 04:44:41;;;;;;;;;;;;;;;;;;5055688;28;3317;-60
2022/10/11 04:47:07;;;;;;;;;;;;;;;;;;5055605;28;5023;-60
2022/10/11 04:49:32;;;;;;;;;;;;;;;;;;5054911;28;5739;-60
2022/10/11 04:51:57;;;;;;;;;;;;;;;;;;5055960;28;5095;-60
2022/10/11 04:54:22;;;;;;;;;;;;;;;;;;5061150;28;4680;-59
2022/10/11 04:56:54;;;;;;;;;;;;;;;;;;5057824;28;3292;-59
2022/10/11 04:59:19;;;;;;;;;;;;;;;;;;5064093;28;5037;-60
2022/10/11 05:01:45;;;;;;;;;;;;;;;;;;5056532;28;4877;-59
2022/10/11 05:04:16;;;;;;;;;;;;;;;;;;5067196;28;5141;-60
2022/10/11 05:06:41;;;;;;;;;;;;;;;;;;5062312;28;5090;-60
2022/10/11 05:09:06;;;;;;;;;;;;;;;;;;5064103;28;1269;-60
2022/10/11 05:11:32;;;;;;;;;;;;;;;;;;5060255;28;4589;-60
2022/10/11 05:13:57;;;;;;;;;;;;;;;;;;5063135;28;5005;-59
2022/10/11 05:16:23;;;;;;;;;;;;;;;;;;5062698;28;5067;-60
2022/10/11 05:18:48;;;;;;;;;;;;;;;;;;5064607;28;5132;-60
2022/10/11 05:21:13;;;;;;;;;;;;;;;;;;5040365;28;4970;-60
2022/10/11 05:23:38;;;;;;;;;;;;;;;;;;5053101;28;3035;-66
2022/10/11 05:26:04;;;;;;;;;;;;;;;;;;5056458;28;4954;-65
2022/10/11 05:28:29;;;;;;;;;;;;;;;;;;5051652;28;5080;-69
2022/10/11 05:30:54;;;;;;;;;;;;;;;;;;5053494;28;5063;-65
2022/10/11 05:33:19;;;;;;;;;;;;;;;;;;5061707;28;5164;-65
2022/10/11 05:35:45;;;;;;;;;;;;;;;;;;5055950;28;3155;-64
2022/10/11 05:38:10;;;;;;;;;;;;;;;;;;5056608;28;4536;-65
2022/10/11 05:40:36;;;;;;;;;;;;;;;;;;5060144;28;5076;-68
2022/10/11 05:43:01;;;;;;;;;;;;;;;;;;5056447;28;5151;-60
2022/10/11 05:45:26;;;;;;;;;;;;;;;;;;5057616;28;5064;-60
2022/10/11 05:47:51;;;;;;;;;;;;;;;;;;5052729;28;3051;-59
2022/10/11 05:50:17;;;;;;;;;;;;;;;;;;5036996;28;5053;-65
2022/10/11 05:52:42;;;;;;;;;;;;;;;;;;5047939;28;4492;-61
2022/10/11 05:55:07;;;;;;;;;;;;;;;;;;5055807;28;5073;-60
2022/10/11 05:57:33;;;;;;;;;;;;;;;;;;5050194;28;4880;-60
2022/10/11 05:59:58;;;;;;;;;;;;;;;;;;5051324;28;3314;-60
2022/10/11 06:02:23;;;;;;;;;;;;;;;;;;5054906;28;4501;-64
2022/10/11 06:04:48;;;;;;;;;;;;;;;;;;5061425;28;4992;-63
2022/10/11 06:07:14;;;;;;;;;;;;;;;;;;5048312;28;5051;-68
2022/10/11 06:09:39;;;;;;;;;;;;;;;;;;5038237;28;5137;-68
2022/10/11 06:12:04;;;;;;;;;;;;;;;;;;5063062;28;3042;-66
2022/10/11 06:14:30;;;;;;;;;;;;;;;;;;5053851;28;4912;-67
2022/10/11 06:16:55;;;;;;;;;;;;;;;;;;5051004;28;5012;-63
2022/10/11 06:19:20;;;;;;;;;;;;;;;;;;5034482;28;5234;-67
2022/10/11 06:21:47;;;;;;;;;;;;;;;;;;5051881;28;5198;-67
2022/10/11 06:24:12;;;;;;;;;;;;;;;;;;5059643;28;5777;-66
2022/10/11 06:26:37;;;;;;;;;;;;;;;;;;5040747;28;4517;-67
2022/10/11 06:29:03;;;;;;;;;;;;;;;;;;5059945;28;4623;-69
2022/10/11 06:31:28;;;;;;;;;;;;;;;;;;5062350;28;5073;-70
2022/10/11 06:33:53;;;;;;;;;;;;;;;;;;5059824;28;5127;-70
2022/10/11 06:36:19;;;;;;;;;;;;;;;;;;5057608;28;4530;-69
2022/10/11 06:38:44;;;;;;;;;;;;;;;;;;5067872;28;2269;-69
2022/10/11 06:41:15;;;;;;;;;;;;;;;;;;5044971;28;5016;-69
2022/10/11 06:43:40;;;;;;;;;;;;;;;;;;5056001;28;4909;-69
2022/10/11 06:46:05;;;;;;;;;;;;;;;;;;5054904;28;4533;-70
2022/10/11 06:48:31;;;;;;;;;;;;;;;;;;5048420;28;5024;-69
2022/10/11 06:50:59;;;;;;;;;;;;;;;;;;5053940;28;1263;-69
2022/10/11 06:53:25;;;;;;;;;;;;;;;;;;5056689;28;4437;-70
2022/10/11 06:55:50;;;;;;;;;;;;;;;;;;5064790;28;5479;-69
2022/10/11 06:58:15;;;;;;;;;;;;;;;;;;5064703;28;4621;-69
2022/10/11 07:00:40;;;;;;;;;;;;;;;;;;5064767;28;5156;-69
2022/10/11 07:03:06;;;;;;;;;;;;;;;;;;5064359;28;1162;-70
2022/10/11 07:05:31;;;;;;;;;;;;;;;;;;5049191;28;5001;-70
2022/10/11 07:07:57;;;;;;;;;;;;;;;;;;5063102;28;4592;-69
2022/10/11 07:10:22;;;;;;;;;;;;;;;;;;5066987;28;4878;-69
2022/10/11 07:12:47;;;;;;;;;;;;;;;;;;5061540;28;4501;-69
2022/10/11 07:15:12;;;;;;;;;;;;;;;;;;5063253;28;4536;-69
2022/10/11 07:17:38;;;;;;;;;;;;;;;;;;5053637;28;3222;-70
2022/10/11 07:20:04;;;;;;;;;;;;;;;;;;5063971;28;5196;-69
2022/10/11 07:22:30;;;;;;;;;;;;;;;;;;5036842;28;5002;-69
2022/10/11 07:24:55;;;;;;;;;;;;;;;;;;5052400;28;4505;-69
2022/10/11 07:27:21;;;;;;;;;;;;;;;;;;5051756;28;5026;-70
2022/10/11 07:29:46;;;;;;;;;;;;;;;;;;5062273;28;2804;-68
2022/10/11 07:32:11;;;;;;;;;;;;;;;;;;5047652;28;4414;-68
2022/10/11 07:34:37;;;;;;;;;;;;;;;;;;5061728;28;5125;-68
2022/10/11 07:37:02;;;;;;;;;;;;;;;;;;5063679;28;4964;-67
2022/10/11 07:39:27;;;;;;;;;;;;;;;;;;5064362;28;4857;-68
2022/10/11 07:41:52;;;;;;;;;;;;;;;;;;5057867;28;2921;-68
2022/10/11 07:44:18;;;;;;;;;;;;;;;;;;5059234;28;5002;-68
2022/10/11 07:46:43;;;;;;;;;;;;;;;;;;5067790;28;5293;-67
2022/10/11 07:49:08;;;;;;;;;;;;;;;;;;5069106;28;4695;-68
2022/10/11 07:51:33;;;;;;;;;;;;;;;;;;5056892;28;5017;-68
2022/10/11 07:53:59;;;;;;;;;;;;;;;;;;5070788;28;1104;-68
2022/10/11 07:56:25;;;;;;;;;;;;;;;;;;5042056;28;4409;-68
2022/10/11 07:58:53;;;;;;;;;;;;;;;;;;5044351;28;5003;-68
2022/10/11 08:01:18;;;;;;;;;;;;;;;;;;5070122;28;4636;-68
2022/10/11 08:03:44;;;;;;;;;;;;;;;;;;5070232;28;5085;-68
2022/10/11 08:06:09;;;;;;;;;;;;;;;;;;5051753;28;2774;-69
2022/10/11 08:08:35;;;;;;;;;;;;;;;;;;5036305;28;5017;-69
2022/10/11 08:11:00;;;;;;;;;;;;;;;;;;5069196;28;5113;-68
2022/10/11 08:13:26;;;;;;;;;;;;;;;;;;5058451;28;4512;-68
2022/10/11 08:15:51;;;;;;;;;;;;;;;;;;5062070;28;5144;-68
2022/10/11 08:18:16;;;;;;;;;;;;;;;;;;5062862;28;4961;-68
2022/10/11 08:20:42;;;;;;;;;;;;;;;;;;5062971;28;3017;-69
2022/10/11 08:23:08;;;;;;;;;;;;;;;;;;5056256;28;5044;-69
2022/10/11 08:25:37;;;;;;;;;;;;;;;;;;5069622;28;5133;-69
2022/10/11 08:28:02;;;;;;;;;;;;;;;;;;5060274;28;5003;-69
2022/10/11 08:30:28;;;;;;;;;;;;;;;;;;5062757;28;5112;-69
2022/10/11 08:32:53;;;;;;;;;;;;;;;;;;5063738;28;1128;-69
2022/10/11 08:35:18;;;;;;;;;;;;;;;;;;5061571;28;4484;-68
2022/10/11 08:37:43;;;;;;;;;;;;;;;;;;5057768;28;5511;-69
2022/10/11 08:40:09;;;;;;;;;;;;;;;;;;5053425;28;5292;-69
2022/10/11 08:42:40;;;;;;;;;;;;;;;;;;5064557;28;4558;-69
2022/10/11 08:45:07;;;;;;;;;;;;;;;;;;5065052;28;1152;-69
2022/10/11 08:47:36;;;;;;;;;;;;;;;;;;5041866;28;4811;-69
2022/10/11 08:50:02;;;;;;;;;;;;;;;;;;5064762;28;5172;-69
2022/10/11 08:52:40;;;;;;;;;;;;;;;;;;5056070;28;5034;-68
2022/10/11 08:55:06;;;;;;;;;;;;;;;;;;5062930;28;5284;-68
2022/10/11 08:57:33;;;;;;;;;;;;;;;;;;5061392;28;5017;-68
2022/10/11 09:00:00;;;;;;;;;;;;;;;;;;5043927;28;2057;-68
2022/10/11 09:02:34;;;;;;;;;;;;;;;;;;5044232;28;4467;-68
2022/10/11 09:04:59;;;;;;;;;;;;;;;;;;5050882;28;5011;-68
2022/10/11 09:07:27;;;;;;;;;;;;;;;;;;5068724;28;5022;-68
2022/10/11 09:09:57;;;;;;;;;;;;;;;;;;5040402;28;5211;-68
2022/10/11 09:12:27;;;;;;;;;;;;;;;;;;5047822;28;5057;-68
2022/10/11 09:15:11;;;;;;;;;;;;;;;;;;5050126;28;1215;-68
2022/10/11 09:18:03;;;;;;;;;;;;;;;;;;5057956;28;4952;-70
2022/10/11 09:20:41;;;;;;;;;;;;;;;;;;5044003;28;5030;-69
2022/10/11 09:23:18;;;;;;;;;;;;;;;;;;5080641;28;5400;-68
2022/10/11 09:26:03;;;;;;;;;;;;;;;;;;5065185;28;4910;-68
2022/10/11 09:28:47;;;;;;;;;;;;;;;;;;5066634;28;4965;-68
2022/10/11 09:31:12;;;;;;;;;;;;;;;;;;5057730;28;5110;-68
2022/10/11 09:33:37;;;;;;;;;;;;;;;;;;5048686;28;4481;-68
2022/10/11 09:36:29;;;;;;;;;;;;;;;;;;5057270;28;1089;-68
2022/10/11 09:38:59;;;;;;;;;;;;;;;;;;5053171;28;5156;-68
2022/10/11 09:41:36;;;;;;;;;;;;;;;;;;5037423;28;4907;-68
2022/10/11 09:44:04;;;;;;;;;;;;;;;;;;5060680;28;4834;-67
2022/10/11 09:46:36;;;;;;;;;;;;;;;;;;5045288;28;4998;-68
2022/10/11 09:49:03;;;;;;;;;;;;;;;;;;5046455;28;4533;-68
2022/10/11 09:51:28;;;;;;;;;;;;;;;;;;5040805;28;4519;-69
2022/10/11 09:54:01;;;;;;;;;;;;;;;;;;5025866;28;2922;-69
2022/10/11 09:56:27;;;;;;;;;;;;;;;;;;5063045;28;4830;-69
2022/10/11 09:59:09;;;;;;;;;;;;;;;;;;5022079;28;4529;-69
2022/10/11 10:01:34;;;;;;;;;;;;;;;;;;5038486;28;5112;-68
2022/10/11 10:04:04;;;;;;;;;;;;;;;;;;5052940;28;5170;-68
2022/10/11 10:06:29;;;;;;;;;;;;;;;;;;5063113;28;5230;-68
2022/10/11 10:08:54;;;;;;;;;;;;;;;;;;5066671;28;1294;-68
2022/10/11 10:11:19;;;;;;;;;;;;;;;;;;5049888;28;5165;-69
2022/10/11 10:13:51;;;;;;;;;;;;;;;;;;5045205;28;4518;-67
2022/10/11 10:16:27;;;;;;;;;;;;;;;;;;5041251;28;4892;-68
2022/10/11 10:18:52;;;;;;;;;;;;;;;;;;5043556;28;4678;-69
2022/10/11 10:21:18;;;;;;;;;;;;;;;;;;5064909;28;5183;-69
2022/10/11 10:23:43;;;;;;;;;;;;;;;;;;5036592;28;1334;-69
2022/10/11 10:26:09;;;;;;;;;;;;;;;;;;5060500;28;5159;-69
2022/10/11 10:28:34;;;;;;;;;;;;;;;;;;5053105;28;5049;-68
2022/10/11 10:31:00;;;;;;;;;;;;;;;;;;5038347;28;4606;-68
2022/10/11 10:33:26;;;;;;;;;;;;;;;;;;5043458;28;4536;-69
2022/10/11 10:35:53;;;;;;;;;;;;;;;;;;5053529;28;2973;-69
2022/10/11 10:38:21;;;;;;;;;;;;;;;;;;5039024;28;4832;-69
2022/10/11 10:40:48;;;;;;;;;;;;;;;;;;5065261;28;4709;-69
2022/10/11 10:43:17;;;;;;;;;;;;;;;;;;5045104;28;5079;-69
2022/10/11 10:45:48;;;;;;;;;;;;;;;;;;5049523;28;5141;-68
2022/10/11 10:48:39;;;;;;;;;;;;;;;;;;5064853;28;4874;-67
2022/10/11 10:51:07;;;;;;;;;;;;;;;;;;5025119;28;1337;-68
2022/10/11 10:53:35;;;;;;;;;;;;;;;;;;5056260;28;5021;-69
2022/10/11 10:56:21;;;;;;;;;;;;;;;;;;5060538;28;4627;-69
2022/10/11 10:58:55;;;;;;;;;;;;;;;;;;5059353;28;4870;-69
2022/10/11 11:01:28;;;;;;;;;;;;;;;;;;5061101;28;4587;-68
2022/10/11 11:03:56;;;;;;;;;;;;;;;;;;5043261;28;5074;-69
2022/10/11 11:06:27;;;;;;;;;;;;;;;;;;5042611;28;5017;-70
2022/10/11 11:08:56;;;;;;;;;;;;;;;;;;5059203;28;1243;-68
2022/10/11 11:11:40;;;;;;;;;;;;;;;;;;5035222;28;5071;-68
2022/10/11 11:14:14;;;;;;;;;;;;;;;;;;5057492;28;5096;-67
2022/10/11 11:16:44;;;;;;;;;;;;;;;;;;5068399;28;4432;-69
2022/10/11 11:19:25;;;;;;;;;;;;;;;;;;5048456;28;5071;-69
2022/10/11 11:21:57;;;;;;;;;;;;;;;;;;5047505;28;4478;-68
2022/10/11 11:24:25;;;;;;;;;;;;;;;;;;5056656;28;5045;-68
2022/10/11 11:26:57;;;;;;;;;;;;;;;;;;5065402;28;4562;-68
2022/10/11 11:29:34;;;;;;;;;;;;;;;;;;5039330;28;4972;-68
2022/10/11 11:32:05;;;;;;;;;;;;;;;;;;5070669;28;4852;-69
2022/10/11 11:34:32;;;;;;;;;;;;;;;;;;5067319;28;4978;-69
2022/10/11 11:37:02;;;;;;;;;;;;;;;;;;5066711;28;4651;-69
2022/10/11 11:39:31;;;;;;;;;;;;;;;;;;5041884;28;4948;-70
2022/10/11 11:41:58;;;;;;;;;;;;;;;;;;5040801;28;1777;-69
2022/10/11 11:44:29;;;;;;;;;;;;;;;;;;5051931;28;4460;-69
2022/10/11 11:46:55;;;;;;;;;;;;;;;;;;5064110;28;4870;-68
2022/10/11 11:49:34;;;;;;;;;;;;;;;;;;5061922;28;4894;-69
2022/10/11 11:52:00;;;;;;;;;;;;;;;;;;5045962;28;4938;-68
2022/10/11 11:54:29;;;;;;;;;;;;;;;;;;5049765;28;4891;-68
2022/10/11 11:57:01;;;;;;;;;;;;;;;;;;5019878;28;3095;-68
2022/10/11 11:59:26;;;;;;;;;;;;;;;;;;5057993;28;4929;-68
2022/10/11 12:02:07;;;;;;;;;;;;;;;;;;5063408;28;5033;-68
2022/10/11 12:04:37;;;;;;;;;;;;;;;;;;5039247;28;5003;-68
2022/10/11 12:07:05;;;;;;;;;;;;;;;;;;5031813;28;4559;-68
2022/10/11 12:09:31;;;;;;;;;;;;;;;;;;5061362;28;5176;-68
2022/10/11 12:11:57;;;;;;;;;;;;;;;;;;5033294;28;2974;-68
2022/10/11 12:14:26;;;;;;;;;;;;;;;;;;5051887;28;4979;-68
2022/10/11 12:17:03;;;;;;;;;;;;;;;;;;5065449;28;4957;-69
2022/10/11 12:19:28;;;;;;;;;;;;;;;;;;5058892;28;4870;-67
2022/10/11 12:22:13;;;;;;;;;;;;;;;;;;5031159;28;4520;-67
2022/10/11 12:24:52;;;;;;;;;;;;;;;;;;5056514;28;4897;-68
2022/10/11 12:27:36;;;;;;;;;;;;;;;;;;5067123;28;5035;-68
2022/10/11 12:30:01;;;;;;;;;;;;;;;;;;5056975;28;1157;-68
2022/10/11 12:32:27;;;;;;;;;;;;;;;;;;5051880;28;4922;-68
2022/10/11 12:34:56;;;;;;;;;;;;;;;;;;5042092;28;5038;-68
2022/10/11 12:37:22;;;;;;;;;;;;;;;;;;5054719;28;5239;-68
2022/10/11 12:39:47;;;;;;;;;;;;;;;;;;5063055;28;4485;-68
2022/10/11 12:42:31;;;;;;;;;;;;;;;;;;5067643;28;5073;-66
2022/10/11 12:45:12;;;;;;;;;;;;;;;;;;5061082;28;3083;-68
2022/10/11 12:48:15;;;;;;;;;;;;;;;;;;5059756;28;4400;-68
2022/10/11 12:50:59;;;;;;;;;;;;;;;;;;4998629;28;4846;-68
2022/10/11 12:53:27;;;;;;;;;;;;;;;;;;5000326;28;5047;-68
2022/10/11 12:56:14;;;;;;;;;;;;;;;;;;5030972;28;5076;-68
2022/10/11 12:58:46;;;;;;;;;;;;;;;;;;5044463;28;5050;-69
2022/10/11 13:01:13;;;;;;;;;;;;;;;;;;5043234;28;5050;-68
2022/10/11 13:03:45;;;;;;;;;;;;;;;;;;5048184;28;5031;-68
2022/10/11 13:06:23;;;;;;;;;;;;;;;;;;5050203;28;3388;-69
2022/10/11 13:08:56;;;;;;;;;;;;;;;;;;5057541;28;5034;-69
2022/10/11 13:11:22;;;;;;;;;;;;;;;;;;5062301;28;5003;-69
2022/10/11 13:13:57;;;;;;;;;;;;;;;;;;5047121;28;5006;-67
2022/10/11 13:16:24;;;;;;;;;;;;;;;;;;5067880;28;5090;-68
2022/10/11 13:18:52;;;;;;;;;;;;;;;;;;5062122;28;4806;-69
2022/10/11 13:21:18;;;;;;;;;;;;;;;;;;5061108;28;5015;-67
2022/10/11 13:23:43;;;;;;;;;;;;;;;;;;5056653;28;1506;-67
2022/10/11 13:26:08;;;;;;;;;;;;;;;;;;5064406;28;5046;-68
2022/10/11 13:28:34;;;;;;;;;;;;;;;;;;5053872;28;4764;-68
2022/10/11 13:30:59;;;;;;;;;;;;;;;;;;5063499;28;5077;-67
2022/10/11 13:33:26;;;;;;;;;;;;;;;;;;5059721;28;5052;-68
2022/10/11 13:35:51;;;;;;;;;;;;;;;;;;5060704;28;2968;-68
2022/10/11 13:38:30;;;;;;;;;;;;;;;;;;5043826;28;4797;-68
2022/10/11 13:40:55;;;;;;;;;;;;;;;;;;5051409;28;4637;-68
2022/10/11 13:43:22;;;;;;;;;;;;;;;;;;5062136;28;5031;-68
2022/10/11 13:45:47;;;;;;;;;;;;;;;;;;5041284;28;4967;-68
2022/10/11 13:48:13;;;;;;;;;;;;;;;;;;5066026;28;1184;-68
2022/10/11 13:50:38;;;;;;;;;;;;;;;;;;5044289;28;4576;-68
2022/10/11 13:53:20;;;;;;;;;;;;;;;;;;5049372;28;5171;-69
2022/10/11 13:55:53;;;;;;;;;;;;;;;;;;5039655;28;4505;-69
2022/10/11 13:58:30;;;;;;;;;;;;;;;;;;5029733;28;5073;-64
2022/10/11 14:00:59;;;;;;;;;;;;;;;;;;5053942;28;4714;-63
2022/10/11 14:03:39;;;;;;;;;;;;;;;;;;5038891;28;5107;-63
2022/10/11 14:06:04;;;;;;;;;;;;;;;;;;5023025;28;1457;-65
2022/10/11 14:08:37;;;;;;;;;;;;;;;;;;5048523;28;5314;-65
2022/10/11 14:11:02;;;;;;;;;;;;;;;;;;5043680;28;4804;-65
2022/10/11 14:13:28;;;;;;;;;;;;;;;;;;5060244;28;4868;-65
2022/10/11 14:15:59;;;;;;;;;;;;;;;;;;5066268;28;5087;-65
2022/10/11 14:18:32;;;;;;;;;;;;;;;;;;5054603;28;5112;-67
2022/10/11 14:20:57;;;;;;;;;;;;;;;;;;5060723;28;2895;-61
2022/10/11 14:23:23;;;;;;;;;;;;;;;;;;5020453;28;4623;-67
2022/10/11 14:25:50;;;;;;;;;;;;;;;;;;5058270;28;5025;-66
2022/10/11 14:28:15;;;;;;;;;;;;;;;;;;5060976;28;5052;-66
2022/10/11 14:30:41;;;;;;;;;;;;;;;;;;5055883;28;5147;-65
2022/10/11 14:33:07;;;;;;;;;;;;;;;;;;5066436;28;1298;-66
2022/10/11 14:35:32;;;;;;;;;;;;;;;;;;5061005;28;4954;-66
2022/10/11 14:37:57;;;;;;;;;;;;;;;;;;5053436;28;4837;-67
2022/10/11 14:40:24;;;;;;;;;;;;;;;;;;5062520;28;4558;-66
2022/10/11 14:42:49;;;;;;;;;;;;;;;;;;5061874;28;5151;-65
2022/10/11 14:45:14;;;;;;;;;;;;;;;;;;5061606;28;5167;-64
2022/10/11 14:47:40;;;;;;;;;;;;;;;;;;5060217;28;1113;-66
2022/10/11 14:50:28;;;;;;;;;;;;;;;;;;5067019;28;4652;-59
2022/10/11 14:52:53;;;;;;;;;;;;;;;;;;5020862;28;5375;-64
2022/10/11 14:55:19;;;;;;;;;;;;;;;;;;5062620;28;5066;-65
2022/10/11 14:57:44;;;;;;;;;;;;;;;;;;5065839;28;4879;-65
2022/10/11 15:00:19;;;;;;;;;;;;;;;;;;5061596;28;3005;-65
2022/10/11 15:02:45;;;;;;;;;;;;;;;;;;5043436;28;5157;-67
2022/10/11 15:05:10;;;;;;;;;;;;;;;;;;5067422;28;4611;-66
2022/10/11 15:07:42;;;;;;;;;;;;;;;;;;5066323;28;5162;-66
2022/10/11 15:10:24;;;;;;;;;;;;;;;;;;5061353;28;5151;-61
2022/10/11 15:12:49;;;;;;;;;;;;;;;;;;5064263;28;5101;-61
2022/10/11 15:15:19;;;;;;;;;;;;;;;;;;5058624;28;4536;-66
2022/10/11 15:17:44;;;;;;;;;;;;;;;;;;5059500;28;3428;-66
2022/10/11 15:20:13;;;;;;;;;;;;;;;;;;5053245;28;4719;-59
2022/10/11 15:22:38;;;;;;;;;;;;;;;;;;5044058;28;4601;-68
2022/10/11 15:25:04;;;;;;;;;;;;;;;;;;5055055;28;5151;-67
2022/10/11 15:27:29;;;;;;;;;;;;;;;;;;5038586;28;5190;-69
2022/10/11 15:29:55;;;;;;;;;;;;;;;;;;5052557;28;3157;-67
2022/10/11 15:32:20;;;;;;;;;;;;;;;;;;5064469;28;4472;-68
2022/10/11 15:34:45;;;;;;;;;;;;;;;;;;5058006;28;5193;-67
2022/10/11 15:37:10;;;;;;;;;;;;;;;;;;5064807;28;4522;-67
2022/10/11 15:39:36;;;;;;;;;;;;;;;;;;5062178;28;5143;-67
2022/10/11 15:42:01;;;;;;;;;;;;;;;;;;5055138;28;3113;-67
2022/10/11 15:44:26;;;;;;;;;;;;;;;;;;5057323;28;4983;-67
2022/10/11 15:46:51;;;;;;;;;;;;;;;;;;5042902;28;5042;-67
2022/10/11 15:49:17;;;;;;;;;;;;;;;;;;5070293;28;5050;-66
2022/10/11 15:51:42;;;;;;;;;;;;;;;;;;5052706;28;5400;-67
2022/10/11 15:54:07;;;;;;;;;;;;;;;;;;5067019;28;3180;-67
2022/10/11 15:56:32;;;;;;;;;;;;;;;;;;5064197;28;5101;-67
2022/10/11 15:58:58;;;;;;;;;;;;;;;;;;5065712;28;4493;-67
2022/10/11 16:01:23;;;;;;;;;;;;;;;;;;5064156;28;4913;-67
2022/10/11 16:03:49;;;;;;;;;;;;;;;;;;5066084;28;5099;-66
2022/10/11 16:06:15;;;;;;;;;;;;;;;;;;5046421;28;4460;-67
2022/10/11 16:08:40;;;;;;;;;;;;;;;;;;5064147;28;3397;-67
2022/10/11 16:11:06;;;;;;;;;;;;;;;;;;5061028;28;4872;-70
2022/10/11 16:13:31;;;;;;;;;;;;;;;;;;5054223;28;4712;-70
2022/10/11 16:15:56;;;;;;;;;;;;;;;;;;5063533;28;5059;-68
2022/10/11 16:18:21;;;;;;;;;;;;;;;;;;5063040;28;5157;-68
2022/10/11 16:20:47;;;;;;;;;;;;;;;;;;5060339;28;1977;-68
2022/10/11 16:23:13;;;;;;;;;;;;;;;;;;5056309;28;4401;-68
2022/10/11 16:25:38;;;;;;;;;;;;;;;;;;5052912;28;4466;-73
2022/10/11 16:28:04;;;;;;;;;;;;;;;;;;5043135;28;4500;-71
2022/10/11 16:30:29;;;;;;;;;;;;;;;;;;5068383;28;4995;-71
2022/10/11 16:32:54;;;;;;;;;;;;;;;;;;5067087;28;2966;-71
2022/10/11 16:35:20;;;;;;;;;;;;;;;;;;5066073;28;4992;-69
2022/10/11 16:37:45;;;;;;;;;;;;;;;;;;5062774;28;5017;-70
2022/10/11 16:40:11;;;;;;;;;;;;;;;;;;5055747;28;5163;-70
2022/10/11 16:42:37;;;;;;;;;;;;;;;;;;5053129;28;5510;-71
2022/10/11 16:45:02;;;;;;;;;;;;;;;;;;5050493;28;3035;-69
2022/10/11 16:47:27;;;;;;;;;;;;;;;;;;5042979;28;5304;-69
2022/10/11 16:49:53;;;;;;;;;;;;;;;;;;5064752;28;4905;-70
2022/10/11 16:52:18;;;;;;;;;;;;;;;;;;5062794;28;5528;-72
2022/10/11 16:54:44;;;;;;;;;;;;;;;;;;5060797;28;4941;-70
2022/10/11 16:57:09;;;;;;;;;;;;;;;;;;5055596;28;3356;-68
2022/10/11 16:59:35;;;;;;;;;;;;;;;;;;5065594;28;4824;-67
2022/10/11 17:02:00;;;;;;;;;;;;;;;;;;5061584;28;4608;-68
2022/10/11 17:04:25;;;;;;;;;;;;;;;;;;5058316;28;4909;-64
2022/10/11 17:06:53;;;;;;;;;;;;;;;;;;5057864;28;5108;-68
2022/10/11 17:09:18;;;;;;;;;;;;;;;;;;5060466;28;5147;-64